KMIC/MIC METAR and TAF weather

Enter ICAO airport designator
Station Type Date Time Source
KMIC METAR 2018/12/17 02:53 UTC NOAA

KMIC 170253Z 30010KT 10SM CLR 01/M06 A3017 RMK AO2 SLP228 T00111061 53006


Station Type Date Time Source
KMIC Decoded METAR 2018/12/17 02:53 UTC NOAA

CRYSTAL AIRPORT, MN, United States (KMIC) 45-04N 093-21W 265M
Dec 16, 2018 - 09:53 PM EST / 2018.12.17 0253 UTC
Wind: from the WNW (300 degrees) at 12 MPH (10 KT):0
Visibility: 10 mile(s):0
Sky conditions: clear
Temperature: 34.0 F (1.1 C)
Windchill: 24 F (-4 C):1
Dew Point: 21.0 F (-6.1 C)
Relative Humidity: 58%
Pressure (altimeter): 30.17 in. Hg (1021 hPa)
Pressure tendency: 0.02 inches (0.6 hPa) higher than three hours ago
ob: KMIC 170253Z 30010KT 10SM CLR 01/M06 A3017 RMK AO2 SLP228 T00111061 53006
cycle: 3

Station Type Date Time Source
KMIC TAF UTC NOAA

Error!


Example: see airport list